createdAt,value
2019-02-19T00:02:05.247Z,62.30
2019-02-19T00:04:34.683Z,62.23
2019-02-19T00:07:03.636Z,63.05
2019-02-19T00:09:32.523Z,63.63
2019-02-19T00:12:01.662Z,63.58
2019-02-19T00:14:30.643Z,63.99
2019-02-19T00:17:00.040Z,64.49
2019-02-19T00:19:29.730Z,63.37
2019-02-19T00:21:59.542Z,63.43
2019-02-19T00:24:29.576Z,64.21
2019-02-19T00:26:58.620Z,64.02
2019-02-19T00:29:27.552Z,63.74
2019-02-19T00:31:58.315Z,63.83
2019-02-19T00:34:27.827Z,64.30
2019-02-19T00:36:57.002Z,64.18
2019-02-19T00:39:26.452Z,63.78
2019-02-19T00:41:55.399Z,63.71
2019-02-19T00:44:25.019Z,64.13
2019-02-19T00:46:55.331Z,62.91
2019-02-19T00:49:24.821Z,62.62
2019-02-19T00:51:53.577Z,63.02
2019-02-19T00:54:22.298Z,64.69
2019-02-19T00:56:51.297Z,65.42
2019-02-19T00:59:20.325Z,66.00
2019-02-19T01:01:49.353Z,66.69
2019-02-19T01:04:18.275Z,66.35
2019-02-19T01:06:47.407Z,65.64
2019-02-19T01:09:17.270Z,65.08
2019-02-19T01:11:46.215Z,64.57
2019-02-19T01:14:15.067Z,65.17
2019-02-19T01:16:44.617Z,65.78
2019-02-19T01:19:14.092Z,65.37
2019-02-19T01:21:43.403Z,65.22
2019-02-19T01:24:12.292Z,65.38
2019-02-19T01:26:41.788Z,65.08
2019-02-19T01:29:11.716Z,64.89
2019-02-19T01:31:41.404Z,65.44
2019-02-19T01:34:10.604Z,65.74
2019-02-19T01:36:39.359Z,65.51
2019-02-19T01:39:09.084Z,65.00
2019-02-19T01:41:38.421Z,65.77
2019-02-19T01:44:07.843Z,65.93
2019-02-19T01:46:36.815Z,67.08
2019-02-19T01:49:05.708Z,67.82
2019-02-19T01:51:35.781Z,66.93
2019-02-19T01:54:05.180Z,66.71
2019-02-19T01:56:34.240Z,66.96
2019-02-19T01:59:03.228Z,66.71
2019-02-19T02:01:32.811Z,66.96
2019-02-19T02:04:02.474Z,66.21
2019-02-19T02:06:31.402Z,65.41
2019-02-19T02:09:01.023Z,65.51
2019-02-19T02:11:31.323Z,65.45
2019-02-19T02:14:00.250Z,65.19
2019-02-19T02:16:29.777Z,65.77
2019-02-19T02:18:58.843Z,66.40
2019-02-19T02:21:27.830Z,66.30
2019-02-19T02:23:57.075Z,67.00
2019-02-19T02:26:25.908Z,67.20
2019-02-19T02:28:55.032Z,66.70
2019-02-19T02:31:24.170Z,66.74
2019-02-19T02:33:53.216Z,66.23
2019-02-19T02:36:22.215Z,66.47
2019-02-19T02:38:51.247Z,66.94
2019-02-19T02:41:20.406Z,66.10
2019-02-19T02:43:49.778Z,66.55
2019-02-19T02:46:18.843Z,66.16
2019-02-19T02:48:47.790Z,66.62
2019-02-19T02:51:17.092Z,66.66
2019-02-19T02:53:46.045Z,65.88
2019-02-19T02:56:15.180Z,65.71
2019-02-19T02:58:44.504Z,66.00
2019-02-19T03:01:14.258Z,65.94
2019-02-19T03:03:43.299Z,66.09
2019-02-19T03:06:17.672Z,66.10
2019-02-19T03:08:47.850Z,66.18
2019-02-19T03:11:16.994Z,65.99
2019-02-19T03:13:46.067Z,66.07
2019-02-19T03:16:15.027Z,66.27
2019-02-19T03:18:44.421Z,66.04
2019-02-19T03:21:13.582Z,66.20
2019-02-19T03:23:42.641Z,66.63
2019-02-19T03:26:11.644Z,66.37
2019-02-19T03:28:40.544Z,66.40
2019-02-19T03:31:09.621Z,66.95
2019-02-19T03:33:38.489Z,66.56
2019-02-19T03:36:08.651Z,66.74
2019-02-19T03:38:37.717Z,66.79
2019-02-19T03:41:06.718Z,66.94
2019-02-19T03:43:35.655Z,67.38
2019-02-19T03:46:11.755Z,67.19
2019-02-19T03:48:34.409Z,67.64
2019-02-19T03:51:03.744Z,67.37
2019-02-19T03:53:32.819Z,67.88
2019-02-19T03:56:01.625Z,67.21
2019-02-19T03:58:30.720Z,67.20
2019-02-19T04:01:00.113Z,67.32
2019-02-19T04:03:29.068Z,67.25
2019-02-19T04:05:58.805Z,67.07
2019-02-19T04:08:27.908Z,67.70
2019-02-19T04:10:56.771Z,67.34
2019-02-19T04:13:25.689Z,67.42
2019-02-19T04:15:54.573Z,67.74
2019-02-19T04:18:23.491Z,67.42
2019-02-19T04:20:52.971Z,67.55
2019-02-19T04:23:22.359Z,67.08
2019-02-19T04:25:51.261Z,67.18
2019-02-19T04:28:22.356Z,68.17
2019-02-19T04:30:51.156Z,68.50
2019-02-19T04:33:20.228Z,68.76
2019-02-19T04:35:49.084Z,68.69
2019-02-19T04:38:18.791Z,68.27
2019-02-19T04:40:48.121Z,68.84
2019-02-19T04:43:17.203Z,68.34
2019-02-19T04:45:46.093Z,68.62
2019-02-19T04:48:15.115Z,68.07
2019-02-19T04:50:43.908Z,68.18
2019-02-19T04:53:13.171Z,68.07
2019-02-19T04:55:42.096Z,68.58
2019-02-19T04:58:11.558Z,69.04
2019-02-19T05:00:40.669Z,68.93
2019-02-19T05:03:09.792Z,68.27
2019-02-19T05:05:38.855Z,68.51
2019-02-19T05:08:07.961Z,68.93
2019-02-19T05:10:37.076Z,69.17
2019-02-19T05:13:06.186Z,69.16
2019-02-19T05:15:35.247Z,68.68
2019-02-19T05:18:04.522Z,69.28
2019-02-19T05:20:33.412Z,68.41
2019-02-19T05:23:02.756Z,68.93
2019-02-19T05:25:32.422Z,68.77
2019-02-19T05:28:01.626Z,68.89
2019-02-19T05:30:30.927Z,70.08
2019-02-19T05:32:59.962Z,69.29
2019-02-19T05:35:29.027Z,69.54
2019-02-19T05:37:58.133Z,70.02
2019-02-19T05:40:28.133Z,69.90
2019-02-19T05:42:56.882Z,69.01
2019-02-19T05:45:25.927Z,69.45
2019-02-19T05:47:55.883Z,69.42
2019-02-19T05:50:26.222Z,69.05
2019-02-19T05:52:56.024Z,69.48
2019-02-19T05:55:25.875Z,69.71
2019-02-19T05:57:54.944Z,69.33
2019-02-19T06:00:24.558Z,69.36
2019-02-19T06:02:53.614Z,69.26
2019-02-19T06:05:22.684Z,68.85
2019-02-19T06:07:51.567Z,68.57
2019-02-19T06:10:21.342Z,68.67
2019-02-19T06:12:50.278Z,69.08
2019-02-19T06:15:19.200Z,69.59
2019-02-19T06:17:48.305Z,68.92
2019-02-19T06:20:17.134Z,69.01
2019-02-19T06:22:46.153Z,69.38
2019-02-19T06:25:15.272Z,68.84
2019-02-19T06:27:44.439Z,68.68
2019-02-19T06:30:14.374Z,68.71
2019-02-19T06:32:44.005Z,69.30
2019-02-19T06:35:13.597Z,68.80
2019-02-19T06:37:43.176Z,68.36
2019-02-19T06:40:19.087Z,68.24
2019-02-19T06:42:48.139Z,68.00
2019-02-19T06:45:18.375Z,68.67
2019-02-19T06:47:48.019Z,68.24
2019-02-19T06:50:16.948Z,67.58
2019-02-19T06:52:45.888Z,68.21
2019-02-19T06:55:14.891Z,68.24
2019-02-19T06:57:44.653Z,67.38
2019-02-19T07:00:13.813Z,71.96
2019-02-19T07:02:53.391Z,70.98
2019-02-19T07:05:23.979Z,68.15
2019-02-19T07:07:53.619Z,68.72
2019-02-19T07:10:23.031Z,69.13
2019-02-19T07:12:52.987Z,69.18
2019-02-19T07:15:22.748Z,67.56
2019-02-19T07:17:52.502Z,66.15
2019-02-19T07:20:22.487Z,66.17
2019-02-19T07:22:51.393Z,65.71
2019-02-19T07:25:20.345Z,65.43
2019-02-19T07:27:50.083Z,65.99
2019-02-19T07:30:18.977Z,65.42
2019-02-19T07:32:47.779Z,65.01
2019-02-19T07:35:16.896Z,65.23
2019-02-19T07:37:45.840Z,64.31
2019-02-19T07:40:14.787Z,64.83
2019-02-19T07:42:44.466Z,62.93
2019-02-19T07:45:13.521Z,62.91
2019-02-19T07:47:42.443Z,62.61
2019-02-19T07:50:11.827Z,62.98
2019-02-19T07:52:41.660Z,62.02
2019-02-19T07:55:10.799Z,61.60
2019-02-19T07:57:40.286Z,61.58
2019-02-19T08:00:10.024Z,61.58
2019-02-19T08:02:39.083Z,60.94
2019-02-19T08:05:08.368Z,61.36
2019-02-19T08:07:37.502Z,60.90
2019-02-19T08:10:06.800Z,60.12
2019-02-19T08:12:35.862Z,60.19
2019-02-19T08:15:05.088Z,59.83
2019-02-19T08:17:34.181Z,60.37
2019-02-19T08:20:04.735Z,58.70
2019-02-19T08:22:34.436Z,57.95
2019-02-19T08:25:03.583Z,57.68
2019-02-19T08:27:32.470Z,58.14
2019-02-19T08:30:01.503Z,57.26
2019-02-19T08:32:30.839Z,56.95
2019-02-19T08:35:00.442Z,55.76
2019-02-19T08:37:29.491Z,54.83
2019-02-19T08:39:58.482Z,52.35
2019-02-19T08:42:27.728Z,52.42
2019-02-19T08:44:56.852Z,52.89
2019-02-19T08:47:25.678Z,51.96
2019-02-19T08:49:55.125Z,51.59
2019-02-19T08:52:24.800Z,50.45
2019-02-19T08:54:53.824Z,49.30
2019-02-19T08:57:22.900Z,49.41
2019-02-19T08:59:51.993Z,49.58
2019-02-19T09:02:20.897Z,49.30
2019-02-19T09:04:50.484Z,49.57
2019-02-19T09:07:19.579Z,49.36
2019-02-19T09:09:49.724Z,48.89
2019-02-19T09:12:18.683Z,49.31
2019-02-19T09:14:49.501Z,48.18
2019-02-19T09:17:18.647Z,47.44
2019-02-19T09:19:48.096Z,46.20
2019-02-19T09:22:17.265Z,46.33
2019-02-19T09:24:46.384Z,45.89
2019-02-19T09:27:16.039Z,45.35
2019-02-19T09:29:45.015Z,45.35
2019-02-19T09:32:15.340Z,45.06
2019-02-19T09:34:44.647Z,44.41
2019-02-19T09:37:13.701Z,44.30
2019-02-19T09:39:43.325Z,43.92
2019-02-19T09:42:13.055Z,43.30
2019-02-19T09:44:42.006Z,43.10
2019-02-19T09:47:10.961Z,42.40
2019-02-19T09:49:41.021Z,41.99
2019-02-19T09:52:10.517Z,43.85
2019-02-19T09:54:39.938Z,39.48
2019-02-19T09:57:08.776Z,39.19
2019-02-19T09:59:37.808Z,38.36
2019-02-19T10:02:06.963Z,39.06
2019-02-19T10:04:36.159Z,38.34
2019-02-19T10:07:05.614Z,37.49
2019-02-19T10:09:34.661Z,37.95
2019-02-19T10:12:04.279Z,39.11
2019-02-19T10:14:33.205Z,37.55
2019-02-19T10:17:02.653Z,37.99
2019-02-19T10:19:32.362Z,37.21
2019-02-19T10:22:02.386Z,37.41
2019-02-19T10:24:31.272Z,37.26
2019-02-19T10:27:00.386Z,37.40
2019-02-19T10:29:29.860Z,36.35
2019-02-19T10:31:58.905Z,35.78
2019-02-19T10:34:28.707Z,35.84
2019-02-19T10:36:57.759Z,36.12
2019-02-19T10:39:26.671Z,34.59
2019-02-19T10:41:55.783Z,34.48
2019-02-19T10:44:25.397Z,34.90
2019-02-19T10:46:54.392Z,34.79
2019-02-19T10:49:24.104Z,34.49
2019-02-19T10:51:53.003Z,35.74
2019-02-19T10:54:21.963Z,34.71
2019-02-19T10:56:51.083Z,34.57
2019-02-19T10:59:20.140Z,34.56
2019-02-19T11:01:49.311Z,34.41
2019-02-19T11:04:18.130Z,34.73
2019-02-19T11:06:47.646Z,34.43
2019-02-19T11:09:16.684Z,34.49
2019-02-19T11:11:45.752Z,34.38
2019-02-19T11:14:14.891Z,33.76
2019-02-19T11:16:43.948Z,33.33
2019-02-19T11:19:13.634Z,34.26
2019-02-19T11:21:44.149Z,33.33
2019-02-19T11:24:13.360Z,32.53
2019-02-19T11:26:43.647Z,32.51
2019-02-19T11:29:13.097Z,32.52
2019-02-19T11:31:42.559Z,31.71
2019-02-19T11:34:12.688Z,31.23
2019-02-19T11:36:41.756Z,30.71
2019-02-19T11:39:10.895Z,30.54
2019-02-19T11:41:43.018Z,29.82
2019-02-19T11:44:12.492Z,29.69
2019-02-19T11:46:41.508Z,31.00
2019-02-19T11:49:11.036Z,29.69
2019-02-19T11:51:40.099Z,29.06
2019-02-19T11:54:09.196Z,29.01
2019-02-19T11:56:38.538Z,30.01
2019-02-19T11:59:08.764Z,28.48
2019-02-19T12:01:37.091Z,28.73
2019-02-19T12:04:06.223Z,28.47
2019-02-19T12:06:35.196Z,28.12
2019-02-19T12:09:05.822Z,27.32
2019-02-19T12:11:35.190Z,27.52
2019-02-19T12:14:04.951Z,27.91
2019-02-19T12:16:33.783Z,27.34
2019-02-19T12:19:02.919Z,26.36
2019-02-19T12:21:31.803Z,26.14
2019-02-19T12:24:01.759Z,26.71
2019-02-19T12:26:30.744Z,26.75
2019-02-19T12:28:59.809Z,25.64
2019-02-19T12:31:28.914Z,25.43
2019-02-19T12:33:58.795Z,25.59
2019-02-19T12:36:27.728Z,25.25
2019-02-19T12:38:56.592Z,24.76
2019-02-19T12:41:26.203Z,25.16
2019-02-19T12:43:55.411Z,24.16
2019-02-19T12:46:24.716Z,24.18
2019-02-19T12:48:54.865Z,24.12
2019-02-19T12:51:26.403Z,24.00
2019-02-19T12:53:51.705Z,23.41
2019-02-19T12:56:20.633Z,22.37
2019-02-19T12:58:50.259Z,20.97
2019-02-19T13:01:20.423Z,20.44
2019-02-19T13:03:50.381Z,19.87
2019-02-19T13:06:19.476Z,19.71
2019-02-19T13:08:48.540Z,19.47
2019-02-19T13:11:17.460Z,19.55
2019-02-19T13:13:46.524Z,19.77
2019-02-19T13:16:15.518Z,19.59
2019-02-19T13:18:45.730Z,18.83
2019-02-19T13:21:15.532Z,18.83
2019-02-19T13:23:44.548Z,18.03
2019-02-19T13:26:13.694Z,17.56
2019-02-19T13:28:43.329Z,17.86
2019-02-19T13:31:13.066Z,17.82
2019-02-19T13:33:42.808Z,16.72
2019-02-19T13:36:12.079Z,17.19
2019-02-19T13:38:41.269Z,17.32
2019-02-19T13:41:10.808Z,17.52
2019-02-19T13:43:40.978Z,16.66
2019-02-19T13:46:10.772Z,16.08
2019-02-19T13:48:40.468Z,15.91
2019-02-19T13:51:09.460Z,16.50
2019-02-19T13:53:43.174Z,16.29
2019-02-19T13:56:12.116Z,17.07
2019-02-19T13:58:41.207Z,16.54
2019-02-19T14:01:10.246Z,16.34
2019-02-19T14:03:39.215Z,17.12
2019-02-19T14:06:08.243Z,17.27
2019-02-19T14:08:37.695Z,17.31
2019-02-19T14:11:06.803Z,17.33
2019-02-19T14:13:35.991Z,17.44
2019-02-19T14:16:18.043Z,18.24
2019-02-19T14:18:52.388Z,17.92
2019-02-19T14:21:27.995Z,19.45
2019-02-19T14:24:02.976Z,19.34
2019-02-19T14:26:37.145Z,19.39
2019-02-19T14:31:17.978Z,19.30
2019-02-19T14:34:54.925Z,20.76
2019-02-19T14:37:44.264Z,19.91
2019-02-19T14:41:21.310Z,20.71
2019-02-19T14:43:59.243Z,20.56
2019-02-19T14:47:34.277Z,20.61
2019-02-19T14:50:12.295Z,20.95
2019-02-19T14:52:54.243Z,22.07
2019-02-19T14:55:33.734Z,22.37
2019-02-19T14:59:08.647Z,22.90
2019-02-19T15:01:46.396Z,22.77
2019-02-19T15:05:19.572Z,23.70
2019-02-19T15:07:58.597Z,24.04
2019-02-19T15:11:31.837Z,25.49
2019-02-19T15:14:12.556Z,26.09
2019-02-19T15:16:47.885Z,27.29
2019-02-19T15:19:26.984Z,27.06
2019-02-19T15:24:05.478Z,27.32
2019-02-19T15:26:46.564Z,28.31
2019-02-19T15:30:24.341Z,28.15
2019-02-19T15:33:02.846Z,28.85
2019-02-19T15:39:52.925Z,28.65
2019-02-19T15:43:25.615Z,28.32
2019-02-19T15:46:06.850Z,27.89
2019-02-19T15:48:51.032Z,28.31
2019-02-19T15:51:28.060Z,28.78
2019-02-19T15:54:03.584Z,28.76
2019-02-19T15:57:08.508Z,28.81
2019-02-19T15:59:42.552Z,28.91
2019-02-19T16:04:19.891Z,29.97
2019-02-19T16:06:54.004Z,32.13
2019-02-19T16:09:33.339Z,33.59
2019-02-19T16:12:10.734Z,33.47
2019-02-19T16:14:46.700Z,34.02
2019-02-19T16:17:27.921Z,34.69
2019-02-19T16:20:04.589Z,34.64
2019-02-19T16:23:40.517Z,35.28
2019-02-19T16:26:45.825Z,35.87
2019-02-19T16:29:34.287Z,36.10
2019-02-19T16:32:07.835Z,36.03
2019-02-19T16:34:57.275Z,36.54
2019-02-19T16:39:42.730Z,36.70
2019-02-19T16:42:21.908Z,36.73
2019-02-19T16:44:55.100Z,37.19
2019-02-19T16:47:32.177Z,36.90
2019-02-19T16:50:20.478Z,37.10
2019-02-19T16:52:58.617Z,36.78
2019-02-19T16:57:41.419Z,37.09
2019-02-19T17:00:17.364Z,37.63
2019-02-19T17:02:51.737Z,37.52
2019-02-19T17:05:26.089Z,37.59
2019-02-19T17:08:09.904Z,37.42
2019-02-19T17:10:46.014Z,37.37
2019-02-19T17:13:19.651Z,38.02
2019-02-19T17:15:55.500Z,37.65
2019-02-19T17:20:37.576Z,37.46
2019-02-19T17:23:15.014Z,37.70
2019-02-19T17:25:51.756Z,38.53
2019-02-19T17:28:35.752Z,39.24
2019-02-19T17:31:10.257Z,39.91
2019-02-19T17:33:44.564Z,39.80
2019-02-19T17:36:28.891Z,40.40
2019-02-19T17:39:05.527Z,40.00
2019-02-19T17:41:40.126Z,40.06
2019-02-19T17:45:18.409Z,40.81
2019-02-19T17:48:07.625Z,40.78
2019-02-19T17:50:41.890Z,40.82
2019-02-19T17:53:14.883Z,41.29
2019-02-19T17:55:50.057Z,41.33
2019-02-19T17:58:23.515Z,41.39
2019-02-19T18:00:56.762Z,42.41
2019-02-19T18:04:01.443Z,41.93
2019-02-19T18:06:46.227Z,42.59
2019-02-19T18:09:22.218Z,42.98
2019-02-19T18:11:56.328Z,42.60
2019-02-19T18:14:30.525Z,42.93
2019-02-19T18:17:04.784Z,44.21
2019-02-19T18:19:33.589Z,43.08
2019-02-19T18:22:02.595Z,43.17
2019-02-19T18:24:32.217Z,43.04
2019-02-19T18:27:01.312Z,43.12
2019-02-19T18:29:30.771Z,43.31
2019-02-19T18:31:59.747Z,43.52
2019-02-19T18:34:29.844Z,43.47
2019-02-19T18:36:59.590Z,43.80
2019-02-19T18:39:29.061Z,43.48
2019-02-19T18:41:57.840Z,43.76
2019-02-19T18:44:27.545Z,44.04
2019-02-19T18:46:56.394Z,44.62
2019-02-19T18:49:26.128Z,44.57
2019-02-19T18:51:56.260Z,45.07
2019-02-19T18:54:25.409Z,45.13
2019-02-19T18:56:54.763Z,44.40
2019-02-19T18:59:24.979Z,44.86
2019-02-19T19:01:53.830Z,44.52
2019-02-19T19:04:23.566Z,45.29
2019-02-19T19:06:52.488Z,44.84
2019-02-19T19:09:21.927Z,44.94
2019-02-19T19:11:50.960Z,44.94
2019-02-19T19:14:19.636Z,45.21
2019-02-19T19:16:54.728Z,45.72
2019-02-19T19:19:23.760Z,45.68
2019-02-19T19:21:53.165Z,45.74
2019-02-19T19:24:23.369Z,47.03
2019-02-19T19:26:52.681Z,47.12
2019-02-19T19:29:21.740Z,46.88
2019-02-19T19:31:50.454Z,46.62
2019-02-19T19:34:19.624Z,46.37
2019-02-19T19:36:48.660Z,46.45
2019-02-19T19:39:19.850Z,47.02
2019-02-19T19:41:48.285Z,46.83
2019-02-19T19:44:17.155Z,46.78
2019-02-19T19:46:46.013Z,47.25
2019-02-19T19:49:15.044Z,47.33
2019-02-19T19:51:44.169Z,47.22
2019-02-19T19:54:13.240Z,47.59
2019-02-19T19:56:43.092Z,47.26
2019-02-19T19:59:12.147Z,47.39
2019-02-19T20:01:41.317Z,47.69
2019-02-19T20:04:10.061Z,47.52
2019-02-19T20:06:39.157Z,47.50
2019-02-19T20:09:08.102Z,47.78
2019-02-19T20:11:37.640Z,48.09
2019-02-19T20:14:06.724Z,48.65
2019-02-19T20:16:36.575Z,48.74
2019-02-19T20:19:05.538Z,49.04
2019-02-19T20:21:34.626Z,49.75
2019-02-19T20:24:03.482Z,49.21
2019-02-19T20:26:33.425Z,49.78
2019-02-19T20:29:02.861Z,49.48
2019-02-19T20:31:31.527Z,49.57
2019-02-19T20:34:00.320Z,49.50
2019-02-19T20:36:29.467Z,49.82
2019-02-19T20:38:58.923Z,49.50
2019-02-19T20:41:28.012Z,49.84
2019-02-19T20:43:57.914Z,49.80
2019-02-19T20:46:27.122Z,49.93
2019-02-19T20:48:56.640Z,50.06
2019-02-19T20:51:25.463Z,50.26
2019-02-19T20:53:54.425Z,49.72
2019-02-19T20:56:23.652Z,50.31
2019-02-19T20:58:52.549Z,50.03
2019-02-19T21:01:22.118Z,50.08
2019-02-19T21:03:52.071Z,50.19
2019-02-19T21:06:21.271Z,50.40
2019-02-19T21:08:50.338Z,50.74
2019-02-19T21:11:20.037Z,50.55
2019-02-19T21:13:49.070Z,51.17
2019-02-19T21:16:18.842Z,51.39
2019-02-19T21:18:47.719Z,51.34
2019-02-19T21:21:16.659Z,51.43
2019-02-19T21:23:45.749Z,51.78
2019-02-19T21:26:14.751Z,52.01
2019-02-19T21:28:44.261Z,52.47
2019-02-19T21:31:13.137Z,52.62
2019-02-19T21:33:42.129Z,53.11
2019-02-19T21:36:12.140Z,52.80
2019-02-19T21:38:41.384Z,52.33
2019-02-19T21:41:10.977Z,53.64
2019-02-19T21:43:39.869Z,54.12
2019-02-19T21:46:08.959Z,55.45
2019-02-19T21:48:38.437Z,57.57
2019-02-19T21:51:08.136Z,55.30
2019-02-19T21:53:36.930Z,55.95
2019-02-19T21:56:07.251Z,55.25
2019-02-19T21:58:36.389Z,56.48
2019-02-19T22:01:05.465Z,56.29
2019-02-19T22:03:35.475Z,56.09
2019-02-19T22:06:05.131Z,56.62
2019-02-19T22:08:34.069Z,54.95
2019-02-19T22:11:04.206Z,55.72
2019-02-19T22:13:33.691Z,56.40
2019-02-19T22:16:02.968Z,57.24
2019-02-19T22:18:31.903Z,58.41
2019-02-19T22:21:08.019Z,56.37
2019-02-19T22:23:37.384Z,57.57
2019-02-19T22:26:06.525Z,57.09
2019-02-19T22:28:35.913Z,57.12
2019-02-19T22:31:05.376Z,57.25
2019-02-19T22:33:34.395Z,57.81
2019-02-19T22:36:03.387Z,57.63
2019-02-19T22:38:32.470Z,58.05
2019-02-19T22:41:01.331Z,58.31
2019-02-19T22:43:30.923Z,57.95
2019-02-19T22:46:00.538Z,57.72
2019-02-19T22:48:29.660Z,58.85
2019-02-19T22:50:59.359Z,58.51
2019-02-19T22:53:33.776Z,58.09
2019-02-19T22:56:14.905Z,57.17
2019-02-19T22:58:43.960Z,57.50
2019-02-19T23:01:17.998Z,57.71
2019-02-19T23:03:47.254Z,58.32
2019-02-19T23:06:16.258Z,57.45
2019-02-19T23:08:45.908Z,57.48
2019-02-19T23:11:14.651Z,58.35
2019-02-19T23:13:44.267Z,58.37
2019-02-19T23:16:13.698Z,59.39
2019-02-19T23:18:42.564Z,60.29
2019-02-19T23:21:11.590Z,59.98
2019-02-19T23:23:40.572Z,59.57
2019-02-19T23:26:09.546Z,59.09
2019-02-19T23:28:38.471Z,58.81
2019-02-19T23:31:08.047Z,58.84
2019-02-19T23:33:38.643Z,59.77
2019-02-19T23:36:19.905Z,60.18
2019-02-19T23:38:49.742Z,59.51
2019-02-19T23:41:18.731Z,59.56
2019-02-19T23:43:47.855Z,60.19
2019-02-19T23:46:17.151Z,60.46
2019-02-19T23:48:46.208Z,61.55
2019-02-19T23:51:15.275Z,60.58
2019-02-19T23:53:44.764Z,59.55
2019-02-19T23:56:13.763Z,59.17
2019-02-19T23:58:42.971Z,59.84
